Time;durP1;ratioP1;P1;durP2;ratioP2;P2;SDS_P1;SDS_P2;PMS_P1;PMS_P2;Temp;Humidity;BMP_temperature;BMP_pressure;BME280_temperature;BME280_humidity;BME280_pressure;Samples;Min_cycle;Max_cycle;Signal;HPM_P1;HPM_P2
2021/03/02 00:00:55;;;;;;;23.27;13.65;;;9.70;99.90;;;;;;5072241;28;20107;-82
2021/03/02 00:03:21;;;;;;;17.92;12.75;;;9.70;99.90;;;;;;5072161;28;20897;-82
2021/03/02 00:05:47;;;;;;;22.05;13.25;;;9.70;99.90;;;;;;5084741;28;20035;-82
2021/03/02 00:08:14;;;;;;;20.70;12.27;;;9.70;99.90;;;;;;5091846;28;20413;-82
2021/03/02 00:10:42;;;;;;;19.88;13.05;;;9.70;99.90;;;;;;5074048;28;20127;-82
2021/03/02 00:13:10;;;;;;;19.88;12.57;;;9.60;99.90;;;;;;5092237;28;20395;-82
2021/03/02 00:15:36;;;;;;;21.95;13.27;;;9.60;99.90;;;;;;5092488;28;20031;-82
2021/03/02 00:18:02;;;;;;;19.33;13.30;;;9.60;99.90;;;;;;5092475;28;20024;-82
2021/03/02 00:20:31;;;;;;;19.40;13.07;;;9.60;99.90;;;;;;5073259;28;20020;-82
2021/03/02 00:22:58;;;;;;;19.75;12.68;;;9.60;99.90;;;;;;5075431;28;20515;-82
2021/03/02 00:25:39;;;;;;;24.55;13.18;;;9.70;99.90;;;;;;5077014;28;20475;-82
2021/03/02 00:28:08;;;;;;;23.25;13.05;;;9.70;99.90;;;;;;5091893;28;20078;-82
2021/03/02 00:30:35;;;;;;;26.20;12.98;;;9.70;99.90;;;;;;5092234;28;20030;-82
2021/03/02 00:33:03;;;;;;;23.15;13.00;;;9.60;99.90;;;;;;5092364;28;20020;-82
2021/03/02 00:35:29;;;;;;;20.30;11.90;;;9.50;99.90;;;;;;5090791;28;20028;-82
2021/03/02 00:37:55;;;;;;;17.90;11.43;;;9.40;99.90;;;;;;5092338;28;20021;-82
2021/03/02 00:40:21;;;;;;;19.52;11.23;;;9.60;99.90;;;;;;5092259;28;20032;-82
2021/03/02 00:42:46;;;;;;;18.55;11.57;;;9.20;99.90;;;;;;5092292;28;20142;-82
2021/03/02 00:45:12;;;;;;;19.40;12.27;;;9.60;99.90;;;;;;5091565;28;20427;-82
2021/03/02 00:47:38;;;;;;;17.17;11.57;;;9.20;99.90;;;;;;5092084;28;20022;-81
2021/03/02 00:50:05;;;;;;;16.85;10.75;;;9.10;99.90;;;;;;5078802;28;20032;-81
2021/03/02 00:52:31;;;;;;;17.23;11.23;;;9.10;99.90;;;;;;5092292;28;20101;-81
2021/03/02 00:54:56;;;;;;;19.70;12.48;;;9.30;99.90;;;;;;5092164;28;20059;-81
2021/03/02 00:57:22;;;;;;;19.20;12.10;;;8.80;99.90;;;;;;5092070;28;20032;-81
2021/03/02 00:59:48;;;;;;;19.70;12.27;;;8.90;99.90;;;;;;5092188;28;20032;-81
2021/03/02 01:02:13;;;;;;;17.63;11.75;;;8.90;99.90;;;;;;5091682;28;20055;-81
2021/03/02 01:04:39;;;;;;;22.15;13.05;;;9.40;99.90;;;;;;5089749;28;20039;-81
2021/03/02 01:07:05;;;;;;;21.13;13.25;;;9.00;99.90;;;;;;5089688;28;20028;-81
2021/03/02 01:09:32;;;;;;;19.40;13.05;;;9.00;99.90;;;;;;5091988;28;20024;-81
2021/03/02 01:11:58;;;;;;;25.27;14.13;;;8.90;99.90;;;;;;5075848;28;20020;-81
2021/03/02 01:14:24;;;;;;;20.80;13.50;;;9.40;99.90;;;;;;5095587;28;20020;-81
2021/03/02 01:16:50;;;;;;;22.75;13.30;;;8.80;99.90;;;;;;5095826;28;20020;-81
2021/03/02 01:19:16;;;;;;;23.23;13.90;;;8.80;99.90;;;;;;5095016;28;20027;-81
2021/03/02 01:21:42;;;;;;;19.25;12.70;;;8.70;99.90;;;;;;5094561;28;20019;-81
2021/03/02 01:24:10;;;;;;;22.50;12.98;;;8.70;99.90;;;;;;5095627;28;20050;-81
2021/03/02 01:26:36;;;;;;;23.42;13.20;;;8.70;99.90;;;;;;5081143;28;20561;-82
2021/03/02 01:29:01;;;;;;;20.30;13.27;;;8.70;99.90;;;;;;5075264;28;20064;-82
2021/03/02 01:31:27;;;;;;;21.05;13.02;;;8.60;99.90;;;;;;5079383;28;20012;-82
2021/03/02 01:33:53;;;;;;;20.52;12.60;;;8.60;99.90;;;;;;5095103;28;20032;-82
2021/03/02 01:36:18;;;;;;;21.52;13.23;;;8.70;99.90;;;;;;5076157;28;20551;-82
2021/03/02 01:38:45;;;;;;;20.48;12.50;;;8.60;99.90;;;;;;5092676;28;20376;-82
2021/03/02 01:41:11;;;;;;;22.55;13.40;;;8.50;99.90;;;;;;5094774;28;20129;-82
2021/03/02 01:43:37;;;;;;;21.92;13.57;;;8.70;99.90;;;;;;5089480;28;20128;-82
2021/03/02 01:46:04;;;;;;;20.50;12.55;;;8.50;99.90;;;;;;5074850;28;20567;-82
2021/03/02 01:48:32;;;;;;;19.20;14.30;;;8.50;99.90;;;;;;5074460;28;20056;-82
2021/03/02 01:50:58;;;;;;;22.30;13.95;;;8.50;99.90;;;;;;5075856;28;20484;-82
2021/03/02 01:53:23;;;;;;;23.70;14.38;;;8.40;99.90;;;;;;5074759;28;20082;-82
2021/03/02 01:55:49;;;;;;;21.85;14.02;;;8.40;99.90;;;;;;5074867;28;20043;-82
2021/03/02 01:58:15;;;;;;;26.65;14.98;;;8.30;99.90;;;;;;5074444;28;20598;-82
2021/03/02 02:00:41;;;;;;;19.33;13.50;;;8.30;99.90;;;;;;5074696;28;20032;-82
2021/03/02 02:03:33;;;;;;;22.25;13.45;;;8.20;99.90;;;;;;5073946;28;20170;-81
2021/03/02 02:06:22;;;;;;;23.58;14.32;;;8.20;99.90;;;;;;5094446;28;20077;-81
2021/03/02 02:08:57;;;;;;;24.08;15.02;;;8.00;99.90;;;;;;5094486;28;20028;-81
2021/03/02 02:11:35;;;;;;;23.60;16.42;;;8.00;99.90;;;;;;5076060;28;20016;-81
2021/03/02 02:14:13;;;;;;;22.23;14.80;;;8.00;99.90;;;;;;5076525;28;20024;-81
2021/03/02 02:16:42;;;;;;;21.52;13.68;;;8.20;99.90;;;;;;5074624;28;20021;-81
2021/03/02 02:19:25;;;;;;;19.95;13.35;;;8.00;99.90;;;;;;5083757;28;20058;-81
2021/03/02 02:22:07;;;;;;;24.58;14.32;;;8.30;99.90;;;;;;5093306;28;20389;-81
2021/03/02 02:24:48;;;;;;;26.38;15.15;;;8.00;99.90;;;;;;5089069;28;20040;-81
2021/03/02 02:27:14;;;;;;;22.20;14.65;;;8.00;99.90;;;;;;5083472;28;20069;-81
2021/03/02 02:29:40;;;;;;;21.98;14.93;;;8.00;99.90;;;;;;5093423;28;20012;-81
2021/03/02 02:32:07;;;;;;;21.95;13.80;;;8.00;99.90;;;;;;5075835;28;20085;-81
2021/03/02 02:34:36;;;;;;;21.42;13.23;;;8.00;99.90;;;;;;5084360;28;20051;-81
2021/03/02 02:37:03;;;;;;;20.83;13.38;;;8.00;99.90;;;;;;5073874;28;20013;-81
2021/03/02 02:39:32;;;;;;;18.92;13.88;;;8.10;99.90;;;;;;5077889;28;20041;-81
2021/03/02 02:41:59;;;;;;;21.52;13.38;;;8.20;99.90;;;;;;5093825;28;20019;-81
2021/03/02 02:44:26;;;;;;;22.73;13.93;;;8.20;99.90;;;;;;5093447;28;20077;-81
2021/03/02 02:46:54;;;;;;;21.60;13.45;;;8.40;99.90;;;;;;5076796;28;20492;-81
2021/03/02 02:49:20;;;;;;;24.15;14.40;;;7.90;99.90;;;;;;5079142;28;20043;-81
2021/03/02 02:51:46;;;;;;;24.10;14.30;;;8.00;99.90;;;;;;5093842;28;20056;-81
2021/03/02 02:54:13;;;;;;;22.67;14.10;;;8.10;99.90;;;;;;5093917;28;20063;-81
2021/03/02 02:56:42;;;;;;;20.05;13.48;;;7.80;99.90;;;;;;5093189;28;20020;-81
2021/03/02 02:59:20;;;;;;;20.70;13.88;;;8.20;99.90;;;;;;5075129;28;20491;-81
2021/03/02 03:01:51;;;;;;;24.05;13.63;;;7.60;99.90;;;;;;5075313;28;20470;-81
2021/03/02 03:04:21;;;;;;;24.58;14.05;;;7.60;99.90;;;;;;5065188;28;20032;-81
2021/03/02 03:06:49;;;;;;;23.73;14.57;;;7.80;99.90;;;;;;5073425;28;20033;-81
2021/03/02 03:09:17;;;;;;;23.77;13.52;;;8.00;99.90;;;;;;5072521;28;20017;-81
2021/03/02 03:11:46;;;;;;;24.58;14.27;;;7.70;99.90;;;;;;5073205;28;20051;-81
2021/03/02 03:14:13;;;;;;;18.60;13.82;;;8.10;99.90;;;;;;5073015;28;20024;-81
2021/03/02 03:16:44;;;;;;;21.15;13.60;;;7.90;99.90;;;;;;5071784;28;20021;-81
2021/03/02 03:19:20;;;;;;;22.27;14.15;;;7.50;99.90;;;;;;5063457;28;20140;-82
2021/03/02 03:21:46;;;;;;;22.35;13.82;;;7.70;99.90;;;;;;5053078;28;20044;-81
2021/03/02 03:24:11;;;;;;;22.17;14.30;;;8.10;99.90;;;;;;5053147;28;20032;-81
2021/03/02 03:26:39;;;;;;;20.52;14.45;;;7.50;99.90;;;;;;5066867;28;20036;-81
2021/03/02 03:29:05;;;;;;;20.75;14.43;;;8.00;99.90;;;;;;5071987;28;20499;-81
2021/03/02 03:31:31;;;;;;;22.38;15.45;;;7.90;99.90;;;;;;5072721;28;20112;-81
2021/03/02 03:33:58;;;;;;;21.70;14.98;;;8.10;99.90;;;;;;5060455;28;20083;-81
2021/03/02 03:36:25;;;;;;;23.50;15.13;;;8.00;99.90;;;;;;5057239;28;20100;-81
2021/03/02 03:38:51;;;;;;;23.23;14.93;;;7.70;99.90;;;;;;5071157;28;20063;-81
2021/03/02 03:41:16;;;;;;;20.98;14.48;;;7.50;99.90;;;;;;5072282;28;20060;-81
2021/03/02 03:43:42;;;;;;;22.85;15.13;;;7.70;99.90;;;;;;5072499;28;20539;-81
2021/03/02 03:46:08;;;;;;;25.25;15.93;;;7.30;99.90;;;;;;5072225;28;20046;-81
2021/03/02 03:48:34;;;;;;;23.83;15.45;;;7.40;99.90;;;;;;5070658;28;20028;-81
2021/03/02 03:51:00;;;;;;;19.45;14.00;;;7.30;99.90;;;;;;5072316;28;20029;-81
2021/03/02 03:53:31;;;;;;;20.95;14.18;;;7.30;99.90;;;;;;5072244;28;20016;-81
2021/03/02 03:55:58;;;;;;;21.23;14.80;;;7.30;99.90;;;;;;5060028;28;20112;-81
2021/03/02 03:58:28;;;;;;;21.92;14.23;;;7.60;99.90;;;;;;5052329;28;20044;-81
2021/03/02 04:00:54;;;;;;;22.20;13.30;;;7.30;99.90;;;;;;5053737;28;20028;-81
2021/03/02 04:03:20;;;;;;;22.88;14.32;;;7.30;99.90;;;;;;5050875;28;20041;-81
2021/03/02 04:05:48;;;;;;;24.17;14.02;;;7.30;99.90;;;;;;5067114;28;20432;-81
2021/03/02 04:08:15;;;;;;;23.08;14.75;;;7.30;99.90;;;;;;5071775;28;20416;-81
2021/03/02 04:10:42;;;;;;;18.92;14.20;;;7.20;99.90;;;;;;5072215;28;20020;-81
2021/03/02 04:13:10;;;;;;;20.60;13.68;;;7.60;99.90;;;;;;5071621;28;20415;-81
2021/03/02 04:15:36;;;;;;;19.95;14.57;;;7.70;99.90;;;;;;5071251;28;20161;-81
2021/03/02 04:18:02;;;;;;;20.45;14.93;;;7.30;99.90;;;;;;5070746;28;20484;-81
2021/03/02 04:20:28;;;;;;;23.05;14.80;;;7.20;99.90;;;;;;5065071;28;20027;-81
2021/03/02 04:22:56;;;;;;;22.85;16.33;;;7.30;99.90;;;;;;5072514;28;20048;-81
2021/03/02 04:25:21;;;;;;;25.65;16.10;;;7.20;99.90;;;;;;5071931;28;20025;-81
2021/03/02 04:27:47;;;;;;;22.13;14.77;;;7.10;99.90;;;;;;5071450;28;20032;-81
2021/03/02 04:30:13;;;;;;;23.25;15.45;;;7.20;99.90;;;;;;5065859;28;20374;-81
2021/03/02 04:32:39;;;;;;;23.55;14.57;;;7.10;99.90;;;;;;5052167;28;20376;-81
2021/03/02 04:35:05;;;;;;;24.70;15.90;;;6.90;99.90;;;;;;5052113;28;20029;-81
2021/03/02 04:37:31;;;;;;;24.08;16.02;;;6.80;99.90;;;;;;5051995;28;20079;-81
2021/03/02 04:39:56;;;;;;;23.48;15.48;;;6.80;99.90;;;;;;5050785;28;20469;-81
2021/03/02 04:42:22;;;;;;;19.70;13.52;;;6.70;99.90;;;;;;5051864;28;20021;-81
2021/03/02 04:44:47;;;;;;;24.10;14.98;;;6.80;99.90;;;;;;5058535;28;20492;-81
2021/03/02 04:47:13;;;;;;;25.33;14.57;;;6.90;99.90;;;;;;5074520;28;20493;-81
2021/03/02 04:49:39;;;;;;;23.25;15.88;;;6.90;99.90;;;;;;5075723;28;20024;-81
2021/03/02 04:52:04;;;;;;;25.15;16.35;;;7.50;99.90;;;;;;5075863;28;20033;-81
2021/03/02 04:54:30;;;;;;;24.50;16.17;;;7.00;99.90;;;;;;5075928;28;20052;-81
2021/03/02 04:56:55;;;;;;;26.85;16.65;;;7.60;99.90;;;;;;5066967;28;20480;-81
2021/03/02 04:59:21;;;;;;;24.65;16.20;;;7.10;99.90;;;;;;5074328;28;20025;-82
2021/03/02 05:01:47;;;;;;;23.15;15.43;;;7.00;99.90;;;;;;5075687;28;20150;-82
2021/03/02 05:04:12;;;;;;;27.65;17.50;;;7.00;99.90;;;;;;5075313;28;20103;-82
2021/03/02 05:06:38;;;;;;;27.50;17.02;;;7.30;99.90;;;;;;5075552;28;20025;-82
2021/03/02 05:09:04;;;;;;;23.25;16.30;;;7.10;99.90;;;;;;5075612;28;20020;-82
2021/03/02 05:11:30;;;;;;;29.42;17.52;;;7.10;99.90;;;;;;5075279;28;20020;-82
2021/03/02 05:13:56;;;;;;;23.30;16.30;;;7.50;99.90;;;;;;5073976;28;20064;-82
2021/03/02 05:16:21;;;;;;;24.58;16.60;;;7.00;99.90;;;;;;5075451;28;20415;-82
2021/03/02 05:18:47;;;;;;;26.42;17.42;;;7.20;99.90;;;;;;5075263;28;20041;-82
2021/03/02 05:21:12;;;;;;;27.50;17.65;;;7.50;99.90;;;;;;5075142;28;20021;-82
2021/03/02 05:23:38;;;;;;;27.70;18.38;;;7.00;99.90;;;;;;5075064;28;20020;-82
2021/03/02 05:26:05;;;;;;;25.67;17.25;;;7.30;99.90;;;;;;5073999;28;20449;-82
2021/03/02 05:28:31;;;;;;;25.60;16.58;;;7.00;99.90;;;;;;5074591;28;20470;-82
2021/03/02 05:30:57;;;;;;;26.90;18.15;;;7.20;99.90;;;;;;5074760;28;20017;-82
2021/03/02 05:33:22;;;;;;;26.10;17.60;;;7.00;99.90;;;;;;5074932;28;20104;-82
2021/03/02 05:35:48;;;;;;;24.88;17.58;;;6.90;99.90;;;;;;5075138;28;20052;-82
2021/03/02 05:38:14;;;;;;;24.30;17.25;;;7.00;99.90;;;;;;5074426;28;20039;-82
2021/03/02 05:40:41;;;;;;;25.55;16.48;;;7.00;99.90;;;;;;5074530;28;20028;-82
2021/03/02 05:43:07;;;;;;;25.02;16.20;;;7.50;99.90;;;;;;5074229;28;20025;-82
2021/03/02 05:45:32;;;;;;;23.08;15.85;;;7.60;99.90;;;;;;5060161;28;20028;-82
2021/03/02 05:47:59;;;;;;;28.13;16.52;;;7.10;99.90;;;;;;5053372;28;20394;-82
2021/03/02 05:50:26;;;;;;;25.67;16.30;;;7.50;99.90;;;;;;5067194;28;20020;-82
2021/03/02 05:52:54;;;;;;;25.83;15.90;;;7.40;99.90;;;;;;5074850;28;20028;-82
2021/03/02 05:55:20;;;;;;;23.85;15.85;;;7.10;99.90;;;;;;5074416;28;20551;-82
2021/03/02 05:57:47;;;;;;;22.85;15.90;;;7.10;99.90;;;;;;5073363;28;20116;-82
2021/03/02 06:00:13;;;;;;;20.67;15.10;;;7.10;99.90;;;;;;5074708;28;20070;-82
2021/03/02 06:02:39;;;;;;;23.15;14.68;;;7.20;99.90;;;;;;5074127;28;20044;-82
2021/03/02 06:05:05;;;;;;;25.83;15.32;;;7.20;99.90;;;;;;5074350;28;20029;-82
2021/03/02 06:07:31;;;;;;;24.58;15.02;;;7.20;99.90;;;;;;5074186;28;20056;-82
2021/03/02 06:09:57;;;;;;;21.65;14.18;;;7.20;99.90;;;;;;5073836;28;20118;-82
2021/03/02 06:12:22;;;;;;;23.58;15.32;;;7.30;99.90;;;;;;5073913;28;20108;-82
2021/03/02 06:15:05;;;;;;;22.73;15.10;;;7.40;99.90;;;;;;5074298;28;20052;-82
2021/03/02 06:17:30;;;;;;;25.80;15.52;;;7.20;99.90;;;;;;5073960;28;20036;-82
2021/03/02 06:19:56;;;;;;;25.08;15.50;;;7.40;99.90;;;;;;5074035;28;20116;-82
2021/03/02 06:22:36;;;;;;;23.95;14.95;;;7.50;99.90;;;;;;5073932;28;20035;-82
2021/03/02 06:25:04;;;;;;;25.80;16.30;;;7.60;99.90;;;;;;5073625;28;20021;-82
2021/03/02 06:27:33;;;;;;;20.92;14.80;;;7.20;99.90;;;;;;5070123;28;20086;-82
2021/03/02 06:30:15;;;;;;;22.83;15.45;;;7.20;99.90;;;;;;5073914;28;20384;-82
2021/03/02 06:32:44;;;;;;;21.13;14.95;;;7.20;99.90;;;;;;5074051;28;20021;-82
2021/03/02 06:35:11;;;;;;;23.88;14.98;;;7.20;99.90;;;;;;5073730;28;20098;-82
2021/03/02 06:37:45;;;;;;;24.40;16.23;;;7.20;99.90;;;;;;5073448;28;20098;-82
2021/03/02 06:40:13;;;;;;;31.33;17.15;;;7.50;99.90;;;;;;5073421;28;20104;-83
2021/03/02 06:42:43;;;;;;;25.60;16.67;;;7.30;99.90;;;;;;5072448;28;20033;-82
2021/03/02 06:45:13;;;;;;;25.50;16.45;;;7.70;99.90;;;;;;5054448;28;20389;-82
2021/03/02 06:47:41;;;;;;;24.73;16.45;;;7.20;99.90;;;;;;5053430;28;20021;-81
2021/03/02 06:50:13;;;;;;;30.02;17.15;;;7.80;99.90;;;;;;5053355;28;20090;-82
2021/03/02 06:52:40;;;;;;;26.90;17.33;;;7.40;99.90;;;;;;5053333;28;20029;-82
2021/03/02 06:55:15;;;;;;;24.95;16.80;;;7.90;99.90;;;;;;5061745;28;20025;-82
2021/03/02 06:57:41;;;;;;;24.17;16.48;;;7.60;99.90;;;;;;5062364;28;20032;-82
2021/03/02 07:00:07;;;;;;;30.02;17.88;;;7.50;99.90;;;;;;5072802;28;20522;-82
2021/03/02 07:02:44;;;;;;;25.80;16.85;;;7.40;99.90;;;;;;5072886;28;20117;-82
2021/03/02 07:05:14;;;;;;;26.45;17.20;;;7.30;99.90;;;;;;5072399;28;20082;-82
2021/03/02 07:07:45;;;;;;;27.73;17.17;;;7.30;99.90;;;;;;5072927;28;20032;-82
2021/03/02 07:10:13;;;;;;;27.48;16.98;;;7.70;99.90;;;;;;5071585;28;20043;-82
2021/03/02 07:12:42;;;;;;;23.67;16.75;;;7.40;99.90;;;;;;5067109;28;20078;-82
2021/03/02 07:15:19;;;;;;;27.48;16.13;;;8.10;99.90;;;;;;5053176;28;20013;-82
2021/03/02 07:17:49;;;;;;;29.00;17.40;;;7.50;99.90;;;;;;5051003;28;20447;-83
2021/03/02 07:20:17;;;;;;;27.42;16.35;;;7.70;99.90;;;;;;5055546;28;20024;-82
2021/03/02 07:22:50;;;;;;;27.60;17.83;;;7.70;99.90;;;;;;5059855;28;20115;-81
2021/03/02 07:25:22;;;;;;;27.25;17.30;;;7.90;99.90;;;;;;5063311;28;20016;-81
2021/03/02 07:27:58;;;;;;;28.40;17.63;;;8.00;99.90;;;;;;5069014;28;20025;-82
2021/03/02 07:30:25;;;;;;;27.95;17.60;;;8.20;99.90;;;;;;5054586;28;20063;-81
2021/03/02 07:32:50;;;;;;;27.35;16.17;;;8.30;99.90;;;;;;5063205;28;20024;-81
2021/03/02 07:35:24;;;;;;;23.15;16.70;;;8.50;99.90;;;;;;5068202;28;20024;-81
2021/03/02 07:37:50;;;;;;;26.42;16.58;;;9.10;99.90;;;;;;5067295;28;20036;-81
2021/03/02 07:40:18;;;;;;;26.92;16.92;;;9.00;99.90;;;;;;5071452;28;20024;-81
2021/03/02 07:42:44;;;;;;;20.00;16.42;;;9.00;99.90;;;;;;5072303;28;20020;-81
2021/03/02 07:45:18;;;;;;;29.38;17.63;;;9.10;99.90;;;;;;5069287;28;20067;-81
2021/03/02 07:47:56;;;;;;;22.67;17.20;;;9.40;99.90;;;;;;5059707;28;20373;-81
2021/03/02 07:50:32;;;;;;;32.08;17.25;;;9.50;99.90;;;;;;5066911;28;20016;-81
2021/03/02 07:53:16;;;;;;;25.95;17.02;;;9.60;99.90;;;;;;5059300;28;20047;-81
2021/03/02 07:55:46;;;;;;;33.08;18.02;;;9.90;99.90;;;;;;5070220;28;20024;-81
2021/03/02 07:58:21;;;;;;;28.40;17.92;;;9.90;99.90;;;;;;5061883;28;20032;-81
2021/03/02 08:00:51;;;;;;;30.10;17.58;;;10.10;99.90;;;;;;5060110;28;20044;-81
2021/03/02 08:03:24;;;;;;;29.20;18.58;;;10.20;99.90;;;;;;5063873;28;20417;-81
2021/03/02 08:05:55;;;;;;;22.98;16.98;;;10.40;99.90;;;;;;5085011;28;20391;-81
2021/03/02 08:08:23;;;;;;;26.90;17.42;;;10.60;99.90;;;;;;5082095;28;20028;-81
2021/03/02 08:10:57;;;;;;;33.08;18.08;;;10.80;99.90;;;;;;5084715;28;20020;-81
2021/03/02 08:13:40;;;;;;;32.00;17.90;;;10.90;99.90;;;;;;5063757;28;20024;-81
2021/03/02 08:16:11;;;;;;;25.77;17.83;;;11.00;99.90;;;;;;5076934;28;20024;-81
2021/03/02 08:18:38;;;;;;;26.88;17.15;;;11.30;99.90;;;;;;5076786;28;20065;-81
2021/03/02 08:21:09;;;;;;;29.38;17.88;;;11.50;99.90;;;;;;5085130;28;20016;-81
2021/03/02 08:23:53;;;;;;;32.40;16.90;;;11.70;99.90;;;;;;5095755;28;20028;-81
2021/03/02 08:26:28;;;;;;;27.67;17.45;;;11.80;99.90;;;;;;5081460;28;20024;-81
2021/03/02 08:29:10;;;;;;;25.95;17.40;;;11.90;99.90;;;;;;5079024;28;20029;-81
2021/03/02 08:31:37;;;;;;;31.95;17.02;;;12.10;99.90;;;;;;5093704;28;20024;-81
2021/03/02 08:34:05;;;;;;;33.28;16.40;;;12.50;99.90;;;;;;5088887;28;20021;-81
2021/03/02 08:36:31;;;;;;;26.02;16.55;;;12.90;99.90;;;;;;5082020;28;20101;-81
2021/03/02 08:38:57;;;;;;;23.38;15.95;;;13.40;99.90;;;;;;5089805;28;20020;-81
2021/03/02 08:41:43;;;;;;;32.70;17.40;;;13.80;99.90;;;;;;5093847;28;20383;-81
2021/03/02 08:44:35;;;;;;;28.60;17.20;;;14.30;99.90;;;;;;5090359;28;20034;-81
2021/03/02 08:47:01;;;;;;;24.17;16.80;;;14.90;99.90;;;;;;5082313;28;20524;-81
2021/03/02 08:49:27;;;;;;;28.30;17.13;;;16.30;99.90;;;;;;5078226;28;20028;-81
2021/03/02 08:52:00;;;;;;;30.65;15.82;;;18.20;99.90;;;;;;5085248;28;20021;-81
2021/03/02 08:54:25;;;;;;;24.27;16.05;;;20.00;99.90;;;;;;5084154;28;20024;-81
2021/03/02 08:57:02;;;;;;;24.42;16.65;;;21.20;99.90;;;;;;5082089;28;20021;-81
2021/03/02 08:59:30;;;;;;;22.02;15.27;;;22.40;99.90;;;;;;5091824;28;20020;-81
2021/03/02 09:01:56;;;;;;;23.08;14.50;;;23.10;99.90;;;;;;5094868;28;20372;-81
2021/03/02 09:04:25;;;;;;;21.63;15.00;;;23.60;99.90;;;;;;5095215;28;20024;-81
2021/03/02 09:06:51;;;;;;;22.55;15.25;;;23.90;99.90;;;;;;5094660;28;20056;-81
2021/03/02 09:09:22;;;;;;;23.33;14.07;;;23.60;99.90;;;;;;5094364;28;20036;-81
2021/03/02 09:11:58;;;;;;;17.77;12.30;;;23.80;99.90;;;;;;5092196;28;20081;-81
2021/03/02 09:14:35;;;;;;;18.13;12.05;;;23.80;99.90;;;;;;5095762;28;20132;-81
2021/03/02 09:17:02;;;;;;;16.02;10.75;;;24.40;99.90;;;;;;5095367;28;20024;-81
2021/03/02 09:19:41;;;;;;;17.13;11.10;;;24.80;99.90;;;;;;5095123;28;20475;-81
2021/03/02 09:22:12;;;;;;;16.88;10.85;;;25.00;99.90;;;;;;5095745;28;20365;-81
2021/03/02 09:25:03;;;;;;;17.90;11.18;;;25.80;99.90;;;;;;5083871;28;20554;-81
2021/03/02 09:27:34;;;;;;;22.05;10.02;;;25.40;99.90;;;;;;5076658;28;20460;-81
2021/03/02 09:30:00;;;;;;;13.02;8.85;;;25.70;99.90;;;;;;5077843;28;20024;-81
2021/03/02 09:32:30;;;;;;;18.70;9.50;;;26.10;99.90;;;;;;5093387;28;20024;-82
2021/03/02 09:34:58;;;;;;;16.30;9.00;;;27.20;99.90;;;;;;5093566;28;20036;-81
2021/03/02 09:37:24;;;;;;;12.20;8.73;;;27.80;99.90;;;;;;5094259;28;20081;-81
2021/03/02 09:40:01;;;;;;;17.23;9.07;;;28.30;99.90;;;;;;5095907;28;20016;-81
2021/03/02 09:42:29;;;;;;;11.90;6.75;;;28.50;99.90;;;;;;5095815;28;20080;-81
2021/03/02 09:44:59;;;;;;;12.10;6.40;;;27.80;99.90;;;;;;5094966;28;20379;-81
2021/03/02 09:47:30;;;;;;;9.65;5.65;;;27.80;99.90;;;;;;5092825;28;20398;-81
2021/03/02 09:50:10;;;;;;;11.63;5.45;;;27.70;99.90;;;;;;5094961;28;20036;-81
2021/03/02 09:52:40;;;;;;;6.22;4.03;;;27.70;99.90;;;;;;5094938;28;20099;-81
2021/03/02 09:55:18;;;;;;;7.43;4.72;;;27.10;99.90;;;;;;5094844;28;20009;-81
2021/03/02 09:58:11;;;;;;;8.25;4.88;;;25.80;99.90;;;;;;5094661;28;20028;-81
2021/03/02 10:00:46;;;;;;;8.98;4.65;;;25.10;99.90;;;;;;5094298;28;20024;-81
2021/03/02 10:03:23;;;;;;;7.40;4.45;;;24.70;99.90;;;;;;5084950;28;20058;-81
2021/03/02 10:05:58;;;;;;;6.30;5.15;;;24.20;99.90;;;;;;5074164;28;20082;-81
2021/03/02 10:08:41;;;;;;;11.73;4.63;;;23.70;99.90;;;;;;5074466;28;20059;-81
2021/03/02 10:11:12;;;;;;;8.98;4.65;;;24.10;99.90;;;;;;5074457;28;20017;-81
2021/03/02 10:13:47;;;;;;;7.97;4.45;;;24.60;99.90;;;;;;5074197;28;20029;-81
2021/03/02 10:16:28;;;;;;;8.55;4.65;;;24.90;99.90;;;;;;5079411;28;20086;-81
2021/03/02 10:19:19;;;;;;;6.47;4.50;;;25.20;99.90;;;;;;5081537;28;20082;-81
2021/03/02 10:21:50;;;;;;;9.52;4.80;;;28.00;99.90;;;;;;5073998;28;20025;-81
2021/03/02 10:24:35;;;;;;;8.38;4.93;;;27.10;99.90;;;;;;5073967;28;20059;-81
2021/03/02 10:27:11;;;;;;;10.35;4.70;;;25.90;99.90;;;;;;5073880;28;20028;-81
2021/03/02 10:29:36;;;;;;;7.43;5.00;;;25.70;99.90;;;;;;5073667;28;20531;-81
2021/03/02 10:32:03;;;;;;;10.32;5.07;;;25.40;99.90;;;;;;5073810;28;20036;-81
2021/03/02 10:34:33;;;;;;;8.02;4.72;;;25.20;99.90;;;;;;5073885;28;20028;-81
2021/03/02 10:37:00;;;;;;;9.23;4.70;;;25.10;99.90;;;;;;5081517;28;20028;-82
2021/03/02 10:39:26;;;;;;;7.38;4.80;;;25.40;99.90;;;;;;5092362;28;20523;-81
2021/03/02 10:41:52;;;;;;;8.45;4.40;;;27.40;99.90;;;;;;5093618;28;20047;-81
2021/03/02 10:44:18;;;;;;;10.05;4.82;;;28.60;99.90;;;;;;5092422;28;20069;-81
2021/03/02 10:46:43;;;;;;;11.35;5.25;;;28.30;99.90;;;;;;5093610;28;20035;-81
2021/03/02 10:49:09;;;;;;;7.95;4.75;;;27.30;99.90;;;;;;5091226;28;20024;-81
2021/03/02 10:51:35;;;;;;;9.38;4.65;;;29.70;99.90;;;;;;5093133;28;20068;-81
2021/03/02 10:54:01;;;;;;;7.53;4.57;;;28.60;99.90;;;;;;5093140;28;20433;-82
2021/03/02 10:56:27;;;;;;;8.38;4.90;;;29.20;99.90;;;;;;5093638;28;20046;-81
2021/03/02 10:58:53;;;;;;;9.90;5.43;;;29.50;99.90;;;;;;5092776;28;20024;-81
2021/03/02 11:01:20;;;;;;;8.75;4.85;;;30.20;99.90;;;;;;5093347;28;20055;-82
2021/03/02 11:03:46;;;;;;;7.85;5.13;;;29.70;99.90;;;;;;5091556;28;20559;-82
2021/03/02 11:06:13;;;;;;;7.35;4.70;;;29.60;99.90;;;;;;5093000;28;20028;-82
2021/03/02 11:08:39;;;;;;;10.45;5.20;;;30.80;99.90;;;;;;5093264;28;20035;-82
2021/03/02 11:11:05;;;;;;;8.57;5.22;;;29.00;99.90;;;;;;5092826;28;20027;-83
2021/03/02 11:13:31;;;;;;;8.85;5.20;;;29.60;99.90;;;;;;5083925;28;20012;-83
2021/03/02 11:15:56;;;;;;;6.47;4.75;;;29.20;99.90;;;;;;5086500;28;20112;-83
2021/03/02 11:18:22;;;;;;;8.93;4.68;;;28.00;99.90;;;;;;5092957;28;20021;-83
2021/03/02 11:20:48;;;;;;;7.40;5.20;;;28.10;99.90;;;;;;5093298;28;20490;-82
2021/03/02 11:23:14;;;;;;;8.45;5.10;;;27.30;99.90;;;;;;5093634;28;20027;-83
2021/03/02 11:25:41;;;;;;;7.72;5.63;;;28.10;99.90;;;;;;5093494;28;20089;-81
2021/03/02 11:28:08;;;;;;;6.90;4.97;;;28.10;99.90;;;;;;5092897;28;20020;-82
2021/03/02 11:30:34;;;;;;;11.60;6.78;;;29.10;99.90;;;;;;5092934;28;20557;-84
2021/03/02 11:33:00;;;;;;;8.27;5.75;;;29.00;99.90;;;;;;5083089;28;20037;-84
2021/03/02 11:35:25;;;;;;;7.18;5.07;;;26.90;99.90;;;;;;5085891;28;20087;-83
2021/03/02 11:37:51;;;;;;;6.60;5.10;;;24.80;99.90;;;;;;5080466;28;20531;-81
2021/03/02 11:40:18;;;;;;;9.18;4.90;;;24.40;99.90;;;;;;5076164;28;20044;-81
2021/03/02 11:42:44;;;;;;;6.10;4.97;;;25.60;99.90;;;;;;5082964;28;20040;-81
2021/03/02 11:45:11;;;;;;;9.27;4.90;;;25.20;99.90;;;;;;5083496;28;20031;-81
2021/03/02 11:47:38;;;;;;;7.57;4.90;;;26.80;99.90;;;;;;5080605;28;20383;-81
2021/03/02 11:50:06;;;;;;;8.00;4.95;;;27.70;99.90;;;;;;5090925;28;20016;-81
2021/03/02 11:52:32;;;;;;;8.20;5.05;;;26.80;99.90;;;;;;5085452;28;20502;-81
2021/03/02 11:54:58;;;;;;;9.55;4.63;;;27.40;99.90;;;;;;5081457;28;20020;-81
2021/03/02 11:57:24;;;;;;;8.30;4.85;;;27.40;99.90;;;;;;5087725;28;20494;-81
2021/03/02 11:59:50;;;;;;;6.57;4.53;;;26.40;99.90;;;;;;5091896;28;20027;-81
2021/03/02 12:02:17;;;;;;;8.55;5.10;;;24.90;99.90;;;;;;5083252;28;20536;-81
2021/03/02 12:04:42;;;;;;;8.20;4.63;;;23.40;99.90;;;;;;5082142;28;20484;-81
2021/03/02 12:07:11;;;;;;;8.30;4.65;;;22.80;99.90;;;;;;5085103;28;20021;-81
2021/03/02 12:09:38;;;;;;;8.68;5.28;;;21.80;99.90;;;;;;5079739;28;20388;-81
2021/03/02 12:12:05;;;;;;;9.52;4.40;;;21.40;99.90;;;;;;5085483;28;20020;-81
2021/03/02 12:14:32;;;;;;;8.77;4.70;;;21.00;99.90;;;;;;5078337;28;20407;-81
2021/03/02 12:16:58;;;;;;;9.50;4.80;;;20.60;99.90;;;;;;5083017;28;20494;-82
2021/03/02 12:19:27;;;;;;;8.63;4.68;;;19.60;99.90;;;;;;5084107;28;20029;-81
2021/03/02 12:21:53;;;;;;;9.93;4.82;;;19.00;99.90;;;;;;5080169;28;20021;-82
2021/03/02 12:24:19;;;;;;;8.48;5.05;;;19.20;99.90;;;;;;5084578;28;20511;-82
2021/03/02 12:26:44;;;;;;;6.30;4.43;;;18.60;99.90;;;;;;5083953;28;20024;-80
2021/03/02 12:29:11;;;;;;;10.82;4.75;;;18.70;99.90;;;;;;5092607;28;20546;-80
2021/03/02 12:31:36;;;;;;;11.43;4.80;;;18.70;99.90;;;;;;5092322;28;20016;-80
2021/03/02 12:34:02;;;;;;;9.00;4.68;;;18.70;99.90;;;;;;5092235;28;20024;-80
2021/03/02 12:36:28;;;;;;;8.52;5.10;;;18.70;99.90;;;;;;5089866;28;20032;-80
2021/03/02 12:38:54;;;;;;;6.70;4.18;;;18.80;99.90;;;;;;5089928;28;20036;-81
2021/03/02 12:41:20;;;;;;;8.60;4.43;;;18.90;99.90;;;;;;5091798;28;20031;-84
2021/03/02 12:43:46;;;;;;;7.47;4.93;;;18.80;99.90;;;;;;5092146;28;20103;-81
2021/03/02 12:46:12;;;;;;;8.60;4.38;;;18.60;99.90;;;;;;5092114;28;20028;-80